Time;durP1;ratioP1;P1;durP2;ratioP2;P2;SDS_P1;SDS_P2;PMS_P1;PMS_P2;Temp;Humidity;BMP_temperature;BMP_pressure;BME280_temperature;BME280_humidity;BME280_pressure;Samples;Min_cycle;Max_cycle;Signal;HPM_P1;HPM_P2
2022/04/07 00:01:06;;;;;;;11.48;2.85;;;9.50;99.90;;;;;;5081154;28;20032;-72
2022/04/07 00:03:32;;;;;;;11.15;3.15;;;9.50;99.90;;;;;;5078643;28;20055;-72
2022/04/07 00:05:57;;;;;;;10.65;2.30;;;9.40;99.90;;;;;;5061472;28;20480;-72
2022/04/07 00:08:23;;;;;;;10.13;2.97;;;9.40;99.90;;;;;;5078170;28;20496;-72
2022/04/07 00:10:50;;;;;;;11.65;2.90;;;9.40;99.90;;;;;;5077794;28;20500;-72
2022/04/07 00:13:16;;;;;;;11.40;3.63;;;9.30;99.90;;;;;;5077826;28;20105;-72
2022/04/07 00:15:41;;;;;;;11.02;3.60;;;9.20;99.90;;;;;;5077784;28;20117;-72
2022/04/07 00:18:07;;;;;;;13.30;3.45;;;9.20;99.90;;;;;;5077633;28;20069;-72
2022/04/07 00:20:33;;;;;;;12.45;4.32;;;9.10;99.90;;;;;;5077699;28;20139;-72
2022/04/07 00:22:59;;;;;;;11.30;3.80;;;9.10;99.90;;;;;;5077863;28;20032;-72
2022/04/07 00:25:25;;;;;;;11.30;4.00;;;9.00;99.90;;;;;;5077927;28;20407;-72
2022/04/07 00:27:51;;;;;;;11.52;4.28;;;9.00;99.90;;;;;;5077400;28;20412;-72
2022/04/07 00:30:20;;;;;;;14.43;5.13;;;9.00;99.90;;;;;;5077449;28;20044;-72
2022/04/07 00:32:47;;;;;;;8.75;4.05;;;9.00;99.90;;;;;;5077430;28;20123;-72
2022/04/07 00:35:13;;;;;;;7.78;3.47;;;8.90;99.90;;;;;;5060726;28;20036;-72
2022/04/07 00:37:39;;;;;;;10.65;3.95;;;8.90;99.90;;;;;;5077132;28;20036;-72
2022/04/07 00:40:06;;;;;;;8.95;3.40;;;8.90;99.90;;;;;;5060690;28;20075;-72
2022/04/07 00:42:32;;;;;;;10.40;3.22;;;9.00;99.90;;;;;;5077481;28;20055;-72
2022/04/07 00:44:58;;;;;;;8.75;1.90;;;8.90;99.90;;;;;;5077470;28;20406;-72
2022/04/07 00:47:25;;;;;;;3.67;1.05;;;8.90;99.90;;;;;;5077378;28;20108;-72
2022/04/07 00:49:52;;;;;;;3.35;1.00;;;8.80;99.90;;;;;;5060366;28;20040;-72
2022/04/07 00:52:19;;;;;;;6.15;0.70;;;8.80;99.90;;;;;;5077070;28;20092;-72
2022/04/07 00:54:45;;;;;;;2.53;0.70;;;8.80;99.90;;;;;;5060329;28;20094;-72
2022/04/07 00:57:11;;;;;;;3.03;0.75;;;8.80;99.90;;;;;;5076974;28;20119;-72
2022/04/07 00:59:39;;;;;;;4.07;1.00;;;8.80;99.90;;;;;;5077149;28;20085;-72
2022/04/07 01:02:06;;;;;;;6.60;1.40;;;8.70;99.90;;;;;;5076861;28;20548;-72
2022/04/07 01:04:32;;;;;;;4.35;1.40;;;8.70;99.90;;;;;;5060200;28;20032;-72
2022/04/07 01:06:58;;;;;;;5.47;2.03;;;8.80;99.90;;;;;;5077049;28;20040;-72
2022/04/07 01:09:24;;;;;;;10.68;3.17;;;8.80;99.90;;;;;;5076588;28;20040;-72
2022/04/07 01:11:51;;;;;;;9.13;3.90;;;8.80;99.90;;;;;;5076673;28;20042;-72
2022/04/07 01:14:17;;;;;;;9.05;3.83;;;8.80;99.90;;;;;;5075802;28;20036;-72
2022/04/07 01:16:43;;;;;;;10.18;3.15;;;8.80;99.90;;;;;;5076331;28;20042;-72
2022/04/07 01:19:09;;;;;;;8.48;3.00;;;8.80;99.90;;;;;;5059798;28;20093;-72
2022/04/07 01:21:37;;;;;;;7.32;2.35;;;8.70;99.90;;;;;;5076792;28;20492;-72
2022/04/07 01:24:08;;;;;;;6.13;2.80;;;8.70;99.90;;;;;;5076500;28;20036;-72
2022/04/07 01:26:39;;;;;;;9.20;3.90;;;8.70;99.90;;;;;;5060000;28;20134;-72
2022/04/07 01:29:06;;;;;;;9.02;4.07;;;8.70;99.90;;;;;;5076402;28;20146;-72
2022/04/07 01:31:32;;;;;;;10.43;4.00;;;8.70;99.90;;;;;;5076341;28;20072;-72
2022/04/07 01:33:59;;;;;;;11.40;4.45;;;8.70;99.90;;;;;;5059644;28;20044;-72
2022/04/07 01:36:33;;;;;;;12.23;5.20;;;8.80;99.90;;;;;;5076168;28;20500;-72
2022/04/07 01:39:00;;;;;;;14.02;5.25;;;8.90;99.90;;;;;;5076047;28;20044;-72
2022/04/07 01:41:26;;;;;;;13.10;5.22;;;8.80;99.90;;;;;;5076909;28;20106;-72
2022/04/07 01:43:56;;;;;;;10.50;5.20;;;8.80;99.90;;;;;;5075996;28;20492;-72
2022/04/07 01:46:23;;;;;;;11.65;5.30;;;8.90;99.90;;;;;;5075949;28;20448;-72
2022/04/07 01:48:50;;;;;;;18.40;5.15;;;8.90;99.90;;;;;;5076127;28;20047;-72
2022/04/07 01:51:16;;;;;;;13.95;4.82;;;8.90;99.90;;;;;;5075979;28;20067;-72
2022/04/07 01:53:43;;;;;;;13.63;4.68;;;8.90;99.90;;;;;;5059463;28;20504;-72
2022/04/07 01:56:09;;;;;;;12.20;3.90;;;8.90;99.90;;;;;;5075790;28;20498;-72
2022/04/07 01:58:36;;;;;;;12.57;4.00;;;9.00;99.90;;;;;;5075709;28;20042;-72
2022/04/07 02:01:04;;;;;;;14.30;4.10;;;8.90;99.90;;;;;;5075722;28;20614;-72
2022/04/07 02:03:30;;;;;;;10.02;3.40;;;8.90;99.90;;;;;;5075744;28;20048;-72
2022/04/07 02:06:10;;;;;;;10.88;3.42;;;9.00;99.90;;;;;;5075657;28;20040;-72
2022/04/07 02:08:35;;;;;;;14.35;3.20;;;9.00;99.90;;;;;;5075560;28;20032;-72
2022/04/07 02:11:01;;;;;;;8.38;2.72;;;9.00;99.90;;;;;;5075575;28;20170;-72
2022/04/07 02:13:27;;;;;;;14.15;3.60;;;9.00;99.90;;;;;;5075564;28;20040;-72
2022/04/07 02:15:52;;;;;;;12.27;3.25;;;9.00;99.90;;;;;;5075563;28;20123;-72
2022/04/07 02:18:18;;;;;;;8.77;2.88;;;9.00;99.90;;;;;;5075401;28;20036;-72
2022/04/07 02:20:43;;;;;;;14.38;3.58;;;9.00;99.90;;;;;;5075464;28;20039;-72
2022/04/07 02:23:09;;;;;;;13.73;3.38;;;8.90;99.90;;;;;;5075429;28;20048;-72
2022/04/07 02:25:34;;;;;;;10.18;2.55;;;8.90;99.90;;;;;;5075001;28;20109;-72
2022/04/07 02:28:00;;;;;;;11.15;2.67;;;8.90;99.90;;;;;;5075584;28;20047;-72
2022/04/07 02:30:25;;;;;;;14.43;3.63;;;8.90;99.90;;;;;;5075258;28;20454;-71
2022/04/07 02:32:51;;;;;;;11.73;3.35;;;8.90;99.90;;;;;;5075301;28;20089;-71
2022/04/07 02:35:16;;;;;;;11.55;2.83;;;8.90;99.90;;;;;;5075265;28;20496;-71
2022/04/07 02:37:42;;;;;;;20.15;4.03;;;8.90;99.90;;;;;;5075050;28;20040;-72
2022/04/07 02:40:08;;;;;;;14.95;3.83;;;8.90;99.90;;;;;;5075211;28;20048;-72
2022/04/07 02:42:35;;;;;;;12.00;3.35;;;8.90;99.90;;;;;;5075491;28;20047;-72
2022/04/07 02:45:01;;;;;;;17.67;4.20;;;9.00;99.90;;;;;;5058771;28;20039;-72
2022/04/07 02:47:31;;;;;;;14.25;3.53;;;9.00;99.90;;;;;;5075051;28;20043;-72
2022/04/07 02:49:57;;;;;;;17.88;4.20;;;9.00;99.90;;;;;;5058308;28;20048;-71
2022/04/07 02:52:23;;;;;;;20.55;4.05;;;9.00;99.90;;;;;;5075079;28;20039;-71
2022/04/07 02:54:48;;;;;;;15.63;4.00;;;8.90;99.90;;;;;;5075032;28;20123;-72
2022/04/07 02:57:14;;;;;;;17.95;4.30;;;8.90;99.90;;;;;;5058279;28;20036;-72
2022/04/07 02:59:39;;;;;;;13.77;3.35;;;8.90;99.90;;;;;;5075060;28;20047;-72
2022/04/07 03:02:05;;;;;;;15.48;3.92;;;8.90;99.90;;;;;;5075198;28;20044;-72
2022/04/07 03:04:30;;;;;;;13.90;3.42;;;8.90;99.90;;;;;;5075275;28;20467;-72
2022/04/07 03:06:56;;;;;;;15.15;3.47;;;8.90;99.90;;;;;;5075000;28;20036;-72
2022/04/07 03:09:22;;;;;;;19.08;3.83;;;8.90;99.90;;;;;;5074819;28;20048;-72
2022/04/07 03:11:48;;;;;;;16.05;3.63;;;8.90;99.90;;;;;;5058316;28;20032;-72
2022/04/07 03:14:14;;;;;;;16.15;3.90;;;8.90;99.90;;;;;;5074944;28;20040;-72
2022/04/07 03:16:40;;;;;;;15.50;4.10;;;8.90;99.90;;;;;;5074864;28;20064;-72
2022/04/07 03:19:06;;;;;;;15.60;4.00;;;8.80;99.90;;;;;;5075137;28;20127;-72
2022/04/07 03:21:31;;;;;;;15.02;3.95;;;8.80;99.90;;;;;;5074861;28;20621;-72
2022/04/07 03:23:57;;;;;;;18.40;3.97;;;8.80;99.90;;;;;;5058106;28;20032;-72
2022/04/07 03:26:22;;;;;;;10.52;2.78;;;8.80;99.90;;;;;;5074842;28;20039;-72
2022/04/07 03:28:48;;;;;;;10.98;2.70;;;8.80;99.90;;;;;;5058197;28;20126;-72
2022/04/07 03:31:14;;;;;;;10.82;2.38;;;8.70;99.90;;;;;;5074770;28;20561;-72
2022/04/07 03:33:40;;;;;;;8.70;2.47;;;8.70;99.90;;;;;;5074740;28;20040;-72
2022/04/07 03:36:05;;;;;;;12.05;2.45;;;8.70;99.90;;;;;;5058026;28;20040;-72
2022/04/07 03:38:31;;;;;;;10.30;2.60;;;8.70;99.90;;;;;;5075964;28;20032;-72
2022/04/07 03:40:56;;;;;;;8.52;2.60;;;8.70;99.90;;;;;;5078407;28;20079;-72
2022/04/07 03:43:22;;;;;;;12.75;2.53;;;8.70;99.90;;;;;;5061739;28;20062;-72
2022/04/07 03:45:47;;;;;;;9.90;2.65;;;8.70;99.90;;;;;;5078389;28;20086;-72
2022/04/07 03:48:13;;;;;;;9.00;2.47;;;8.70;99.90;;;;;;5078515;28;20052;-72
2022/04/07 03:50:39;;;;;;;10.88;2.90;;;8.80;99.90;;;;;;5061545;28;20415;-72
2022/04/07 03:53:04;;;;;;;15.27;3.13;;;8.80;99.90;;;;;;5078177;28;20032;-72
2022/04/07 03:55:30;;;;;;;15.55;3.42;;;8.80;99.90;;;;;;5078191;28;20475;-72
2022/04/07 03:57:56;;;;;;;12.07;3.00;;;8.80;99.90;;;;;;5061400;28;20127;-72
2022/04/07 04:00:22;;;;;;;12.95;3.67;;;8.80;99.90;;;;;;5078349;28;20055;-72
2022/04/07 04:02:50;;;;;;;13.93;2.88;;;8.80;99.90;;;;;;5078270;28;20048;-72
2022/04/07 04:05:16;;;;;;;17.10;3.47;;;8.80;99.90;;;;;;5078255;28;20054;-72
2022/04/07 04:07:42;;;;;;;15.00;3.08;;;8.80;99.90;;;;;;5077903;28;20040;-72
2022/04/07 04:10:08;;;;;;;20.88;4.60;;;8.80;99.90;;;;;;5077810;28;20043;-72
2022/04/07 04:12:34;;;;;;;21.38;3.58;;;8.80;99.90;;;;;;5078152;28;20052;-72
2022/04/07 04:15:01;;;;;;;16.15;3.40;;;8.80;99.90;;;;;;5078035;28;20134;-72
2022/04/07 04:17:31;;;;;;;21.35;3.63;;;8.80;99.90;;;;;;5077664;28;20044;-72
2022/04/07 04:19:57;;;;;;;17.27;3.90;;;8.80;99.90;;;;;;5077925;28;20042;-72
2022/04/07 04:22:23;;;;;;;18.73;3.95;;;8.80;99.90;;;;;;5077696;28;20127;-72
2022/04/07 04:24:48;;;;;;;23.40;4.88;;;8.80;99.90;;;;;;5077665;28;20044;-72
2022/04/07 04:27:14;;;;;;;22.60;4.78;;;8.80;99.90;;;;;;5077494;28;20174;-72
2022/04/07 04:29:41;;;;;;;24.50;5.38;;;8.80;99.90;;;;;;5077673;28;20040;-72
2022/04/07 04:32:07;;;;;;;24.25;4.43;;;8.80;99.90;;;;;;5077512;28;20040;-72
2022/04/07 04:34:32;;;;;;;24.63;5.75;;;8.80;99.90;;;;;;5077474;28;20086;-72
2022/04/07 04:36:58;;;;;;;26.65;4.88;;;8.70;99.90;;;;;;5077428;28;20036;-72
2022/04/07 04:39:24;;;;;;;18.25;5.40;;;8.70;99.90;;;;;;5077223;28;20040;-72
2022/04/07 04:41:50;;;;;;;24.05;4.90;;;8.70;99.90;;;;;;5077303;28;20048;-72
2022/04/07 04:44:15;;;;;;;21.85;4.70;;;8.80;99.90;;;;;;5077492;28;20051;-72
2022/04/07 04:46:41;;;;;;;25.55;4.55;;;8.80;99.90;;;;;;5060829;28;20040;-72
2022/04/07 04:49:07;;;;;;;20.75;4.13;;;8.80;99.90;;;;;;5076724;28;20051;-72
2022/04/07 04:51:32;;;;;;;21.58;4.25;;;8.80;99.90;;;;;;5077140;28;20040;-72
2022/04/07 04:53:58;;;;;;;24.98;4.97;;;8.80;99.90;;;;;;5077165;28;20055;-72
2022/04/07 04:56:23;;;;;;;21.05;4.47;;;8.80;99.90;;;;;;5077027;28;20089;-72
2022/04/07 04:58:49;;;;;;;23.63;4.78;;;8.80;99.90;;;;;;5077133;28;20040;-72
2022/04/07 05:01:15;;;;;;;21.67;4.90;;;8.80;99.90;;;;;;5076981;28;20404;-72
2022/04/07 05:03:40;;;;;;;21.35;4.18;;;8.80;99.90;;;;;;5076896;28;20079;-72
2022/04/07 05:06:06;;;;;;;22.83;4.60;;;8.70;99.90;;;;;;5077150;28;20047;-72
2022/04/07 05:08:31;;;;;;;22.58;3.97;;;8.70;99.90;;;;;;5060130;28;20476;-72
2022/04/07 05:10:57;;;;;;;13.05;2.50;;;8.70;99.90;;;;;;5076684;28;20095;-72
2022/04/07 05:13:23;;;;;;;11.30;1.92;;;8.60;99.90;;;;;;5077002;28;20047;-72
2022/04/07 05:15:48;;;;;;;8.77;1.63;;;8.40;99.90;;;;;;5076665;28;20540;-72
2022/04/07 05:18:14;;;;;;;12.88;2.20;;;8.30;99.90;;;;;;5076501;28;20174;-72
2022/04/07 05:20:39;;;;;;;20.58;5.03;;;8.20;99.90;;;;;;5076595;28;20225;-72
2022/04/07 05:23:05;;;;;;;20.60;4.88;;;8.10;99.90;;;;;;5076543;28;20040;-72
2022/04/07 05:25:31;;;;;;;24.13;4.80;;;8.10;99.90;;;;;;5076501;28;20044;-72
2022/04/07 05:27:56;;;;;;;21.80;5.18;;;8.10;99.90;;;;;;5076586;28;20094;-72
2022/04/07 05:30:22;;;;;;;23.75;5.38;;;8.20;99.90;;;;;;5076421;28;20403;-72
2022/04/07 05:32:47;;;;;;;25.35;6.22;;;8.20;99.90;;;;;;5076329;28;20500;-72
2022/04/07 05:35:13;;;;;;;21.10;5.22;;;8.30;99.90;;;;;;5076287;28;20404;-72
2022/04/07 05:37:40;;;;;;;19.15;4.97;;;8.30;99.90;;;;;;5059428;28;20031;-72
2022/04/07 05:40:10;;;;;;;13.57;4.72;;;8.30;99.90;;;;;;5076236;28;20040;-72
2022/04/07 05:42:36;;;;;;;17.25;5.10;;;8.40;99.90;;;;;;5076387;28;20089;-72
2022/04/07 05:45:02;;;;;;;22.33;4.60;;;8.40;99.90;;;;;;5076028;28;20039;-73
2022/04/07 05:47:27;;;;;;;19.13;5.15;;;8.40;99.90;;;;;;5075964;28;20035;-72
2022/04/07 05:49:56;;;;;;;5.88;1.00;;;8.40;99.90;;;;;;5075937;28;20036;-71
2022/04/07 05:52:22;;;;;;;3.60;0.73;;;7.90;99.90;;;;;;5076211;28;20043;-71
2022/04/07 05:54:48;;;;;;;4.28;0.70;;;7.20;99.90;;;;;;5076186;28;20408;-72
2022/04/07 05:57:14;;;;;;;3.83;0.75;;;6.80;99.90;;;;;;5075772;28;20403;-73
2022/04/07 05:59:39;;;;;;;5.60;0.60;;;6.40;99.90;;;;;;5076056;28;20044;-72
2022/04/07 06:02:05;;;;;;;4.45;0.80;;;6.10;99.90;;;;;;5075137;28;20032;-72
2022/04/07 06:04:30;;;;;;;3.65;0.80;;;5.90;99.90;;;;;;5075777;28;20063;-72
2022/04/07 06:06:56;;;;;;;7.30;0.95;;;5.80;99.90;;;;;;5059037;28;20039;-72
2022/04/07 06:09:22;;;;;;;3.17;0.93;;;5.70;99.90;;;;;;5075483;28;20040;-72
2022/04/07 06:11:47;;;;;;;7.35;1.10;;;5.60;99.90;;;;;;5075621;28;20040;-72
2022/04/07 06:14:13;;;;;;;7.57;1.00;;;5.60;99.90;;;;;;5075542;28;20028;-72
2022/04/07 06:16:39;;;;;;;6.32;1.33;;;5.50;99.90;;;;;;5075848;28;20123;-72
2022/04/07 06:19:04;;;;;;;6.82;1.23;;;5.50;99.90;;;;;;5075453;28;20396;-72
2022/04/07 06:21:30;;;;;;;8.85;2.05;;;5.50;99.90;;;;;;5075482;28;20032;-72
2022/04/07 06:23:59;;;;;;;9.15;1.25;;;5.60;99.90;;;;;;5075708;28;20039;-72
2022/04/07 06:26:25;;;;;;;10.20;1.58;;;5.60;99.90;;;;;;5075328;28;20408;-72
2022/04/07 06:28:51;;;;;;;8.10;1.52;;;5.60;99.90;;;;;;5058494;28;20040;-72
2022/04/07 06:31:17;;;;;;;10.02;1.23;;;5.70;99.90;;;;;;5075356;28;20044;-72
2022/04/07 06:33:43;;;;;;;8.70;1.15;;;5.70;99.90;;;;;;5075359;28;20038;-72
2022/04/07 06:36:08;;;;;;;4.00;1.00;;;5.70;99.90;;;;;;5075289;28;20032;-72
2022/04/07 06:38:34;;;;;;;4.43;1.02;;;5.70;99.90;;;;;;5075092;28;20032;-73
2022/04/07 06:41:03;;;;;;;6.20;1.48;;;5.70;99.90;;;;;;5075303;28;20085;-72
2022/04/07 06:43:28;;;;;;;3.47;0.75;;;5.70;99.90;;;;;;5075476;28;20066;-72
2022/04/07 06:45:54;;;;;;;6.35;1.00;;;5.70;99.90;;;;;;5075220;28;20415;-72
2022/04/07 06:48:20;;;;;;;5.38;0.88;;;5.70;99.90;;;;;;5075136;28;20075;-72
2022/04/07 06:50:45;;;;;;;5.57;1.00;;;5.70;99.90;;;;;;5075170;28;20048;-72
2022/04/07 06:53:14;;;;;;;4.53;0.75;;;5.70;99.90;;;;;;5075139;28;20031;-72
2022/04/07 06:55:40;;;;;;;5.03;0.80;;;5.70;99.90;;;;;;5075111;28;20097;-72
2022/04/07 06:58:08;;;;;;;3.63;0.98;;;5.70;99.90;;;;;;5075294;28;20039;-72
2022/04/07 07:00:40;;;;;;;5.28;1.73;;;5.80;99.90;;;;;;5058312;28;20040;-72
2022/04/07 07:03:05;;;;;;;4.35;0.68;;;5.80;99.90;;;;;;5075421;28;20101;-72
2022/04/07 07:05:35;;;;;;;2.67;0.60;;;5.80;99.90;;;;;;5075266;28;20411;-72
2022/04/07 07:08:17;;;;;;;3.75;0.85;;;5.80;99.90;;;;;;5075664;28;20110;-72
2022/04/07 07:10:47;;;;;;;4.07;1.20;;;5.80;99.90;;;;;;5074857;28;20412;-72
2022/04/07 07:13:16;;;;;;;3.60;1.15;;;5.70;99.90;;;;;;5077755;28;20047;-72
2022/04/07 07:15:44;;;;;;;4.57;1.10;;;5.70;99.90;;;;;;5079236;28;20144;-72
2022/04/07 07:18:10;;;;;;;3.33;0.55;;;5.80;99.90;;;;;;5079058;28;20067;-72
2022/04/07 07:20:36;;;;;;;3.63;0.55;;;5.80;99.90;;;;;;5078913;28;20063;-72
2022/04/07 07:23:01;;;;;;;6.05;1.20;;;5.80;99.90;;;;;;5078882;28;20123;-72
2022/04/07 07:25:30;;;;;;;3.92;0.70;;;5.80;99.90;;;;;;5079051;28;20055;-72
2022/04/07 07:27:57;;;;;;;5.13;0.90;;;5.80;99.90;;;;;;5078687;28;20522;-72
2022/04/07 07:30:22;;;;;;;4.15;0.80;;;5.80;99.90;;;;;;5078635;28;20038;-72
2022/04/07 07:32:49;;;;;;;2.95;0.93;;;5.80;99.90;;;;;;5078820;28;20040;-72
2022/04/07 07:35:17;;;;;;;3.95;0.82;;;5.80;99.90;;;;;;5062098;28;20028;-72
2022/04/07 07:37:54;;;;;;;3.45;0.80;;;5.80;99.90;;;;;;5078351;28;20499;-72
2022/04/07 07:40:22;;;;;;;3.83;0.90;;;5.80;99.90;;;;;;5079332;28;20496;-72
2022/04/07 07:42:48;;;;;;;3.40;0.60;;;5.80;99.90;;;;;;5078497;28;20044;-72
2022/04/07 07:45:18;;;;;;;3.75;0.80;;;5.90;99.90;;;;;;5078423;28;20504;-72
2022/04/07 07:47:43;;;;;;;2.22;0.63;;;5.90;99.90;;;;;;5078544;28;20048;-72
2022/04/07 07:50:09;;;;;;;2.88;1.10;;;5.90;99.90;;;;;;5078419;28;20043;-71
2022/04/07 07:52:35;;;;;;;6.35;0.93;;;5.90;99.90;;;;;;5078220;28;20466;-71
2022/04/07 07:55:01;;;;;;;3.00;0.80;;;5.90;99.90;;;;;;5061597;28;20035;-71
2022/04/07 07:57:27;;;;;;;3.30;0.98;;;5.90;99.90;;;;;;5078081;28;20512;-72
2022/04/07 07:59:53;;;;;;;3.55;0.65;;;5.90;99.90;;;;;;5061478;28;20122;-72
2022/04/07 08:02:19;;;;;;;3.95;0.90;;;6.00;99.90;;;;;;5078125;28;20082;-72
2022/04/07 08:04:45;;;;;;;4.18;0.90;;;6.00;99.90;;;;;;5078102;28;20092;-72
2022/04/07 08:07:10;;;;;;;6.07;0.85;;;6.00;99.90;;;;;;5078461;28;20123;-72
2022/04/07 08:09:36;;;;;;;7.28;1.15;;;6.10;99.90;;;;;;5078866;28;20131;-72
2022/04/07 08:12:02;;;;;;;3.35;1.00;;;6.10;99.90;;;;;;5077947;28;20551;-72
2022/04/07 08:14:28;;;;;;;4.75;1.10;;;6.10;99.90;;;;;;5077835;28;20036;-72
2022/04/07 08:16:54;;;;;;;3.45;0.90;;;6.20;99.90;;;;;;5077776;28;20408;-72
2022/04/07 08:19:20;;;;;;;3.97;0.90;;;6.20;99.90;;;;;;5077750;28;20040;-72
2022/04/07 08:21:47;;;;;;;4.10;1.00;;;6.20;99.90;;;;;;5077710;28;20047;-72
2022/04/07 08:24:12;;;;;;;3.47;0.77;;;6.30;99.90;;;;;;5077018;28;20039;-72
2022/04/07 08:26:38;;;;;;;4.43;0.90;;;6.30;99.90;;;;;;5077907;28;20042;-72
2022/04/07 08:29:03;;;;;;;3.85;0.70;;;6.40;99.90;;;;;;5077475;28;20507;-72
2022/04/07 08:31:29;;;;;;;3.97;0.80;;;6.40;99.90;;;;;;5077819;28;20067;-72
2022/04/07 08:33:55;;;;;;;10.57;1.13;;;6.50;99.90;;;;;;5077551;28;20492;-72
2022/04/07 08:36:20;;;;;;;3.78;0.88;;;6.60;99.90;;;;;;5060803;28;20067;-72
2022/04/07 08:38:46;;;;;;;6.22;0.80;;;6.70;99.90;;;;;;5077249;28;20028;-72
2022/04/07 08:41:12;;;;;;;5.65;0.93;;;6.90;99.90;;;;;;5077409;28;20044;-72
2022/04/07 08:43:42;;;;;;;3.35;1.00;;;7.30;99.90;;;;;;5077284;28;20075;-72
2022/04/07 08:46:12;;;;;;;6.93;1.00;;;7.60;99.90;;;;;;5060616;28;20556;-72
2022/04/07 08:48:42;;;;;;;4.95;1.08;;;7.80;99.90;;;;;;5060581;28;20040;-72
2022/04/07 08:51:08;;;;;;;5.45;1.70;;;8.00;99.90;;;;;;5077119;28;20503;-72
2022/04/07 08:53:36;;;;;;;5.28;0.75;;;8.20;99.90;;;;;;5060515;28;20036;-72
2022/04/07 08:56:03;;;;;;;4.53;1.00;;;8.30;99.90;;;;;;5077445;28;20044;-72
2022/04/07 08:58:29;;;;;;;6.00;0.95;;;8.50;99.90;;;;;;5060463;28;20067;-72
2022/04/07 09:00:55;;;;;;;5.50;0.88;;;8.60;99.90;;;;;;5077008;28;20420;-72
2022/04/07 09:03:21;;;;;;;6.18;1.05;;;8.70;99.90;;;;;;5076958;28;20171;-72
2022/04/07 09:05:57;;;;;;;7.38;1.25;;;8.80;99.90;;;;;;5077130;28;20082;-72
2022/04/07 09:08:37;;;;;;;6.65;1.17;;;8.90;99.90;;;;;;5076832;28;20079;-72
2022/04/07 09:11:06;;;;;;;7.28;1.33;;;8.90;99.90;;;;;;5076735;28;20492;-72
2022/04/07 09:13:36;;;;;;;5.20;1.00;;;9.10;99.90;;;;;;5076796;28;20051;-72
2022/04/07 09:16:04;;;;;;;3.15;1.02;;;9.30;99.90;;;;;;5076755;28;20036;-72
2022/04/07 09:18:34;;;;;;;6.85;1.10;;;9.40;99.90;;;;;;5076547;28;20115;-72
2022/04/07 09:21:00;;;;;;;8.93;1.45;;;9.50;99.90;;;;;;5076617;28;20040;-72
2022/04/07 09:23:25;;;;;;;8.57;1.20;;;9.70;99.90;;;;;;5076517;28;20450;-72
2022/04/07 09:25:51;;;;;;;4.88;1.08;;;9.70;99.90;;;;;;5077380;28;20040;-72
2022/04/07 09:28:27;;;;;;;8.05;1.38;;;9.80;99.90;;;;;;5076548;28;20040;-73
2022/04/07 09:30:52;;;;;;;10.38;1.20;;;9.80;99.90;;;;;;5059608;28;20032;-70
2022/04/07 09:33:22;;;;;;;6.65;1.02;;;9.80;99.90;;;;;;5076628;28;20089;-70
2022/04/07 09:36:12;;;;;;;8.75;1.10;;;9.80;99.90;;;;;;5075331;28;20039;-70
2022/04/07 09:38:38;;;;;;;12.00;1.73;;;9.90;99.90;;;;;;5076384;28;20059;-70
2022/04/07 09:41:08;;;;;;;8.48;1.65;;;9.80;99.90;;;;;;5076483;28;20040;-70
2022/04/07 09:43:58;;;;;;;8.27;1.73;;;9.70;99.90;;;;;;5059596;28;20047;-70
2022/04/07 09:46:25;;;;;;;9.63;1.23;;;9.50;99.90;;;;;;5059721;28;20408;-70
2022/04/07 09:49:03;;;;;;;8.27;1.30;;;9.50;99.90;;;;;;5075964;28;20496;-70
2022/04/07 09:51:40;;;;;;;11.68;1.80;;;9.50;99.90;;;;;;5076254;28;20143;-70
2022/04/07 09:54:09;;;;;;;11.20;1.83;;;9.50;99.90;;;;;;5076191;28;20044;-70
2022/04/07 09:56:35;;;;;;;10.82;1.88;;;9.70;99.90;;;;;;5076156;28;20051;-70
2022/04/07 09:59:04;;;;;;;12.45;1.90;;;9.70;99.90;;;;;;5059029;28;20488;-70
2022/04/07 10:01:30;;;;;;;11.60;1.75;;;9.80;99.90;;;;;;5075764;28;20039;-70
2022/04/07 10:03:57;;;;;;;12.65;2.53;;;9.70;99.90;;;;;;5059038;28;20028;-70
2022/04/07 10:06:23;;;;;;;13.82;2.38;;;9.60;99.90;;;;;;5075670;28;20036;-70
2022/04/07 10:08:50;;;;;;;16.95;2.65;;;9.50;99.90;;;;;;5075864;28;20085;-70
2022/04/07 10:11:19;;;;;;;8.95;1.67;;;9.40;99.90;;;;;;5058884;28;20040;-70
2022/04/07 10:13:46;;;;;;;11.80;1.88;;;9.30;99.90;;;;;;5058885;28;20089;-70
2022/04/07 10:16:16;;;;;;;12.02;2.30;;;9.40;99.90;;;;;;5058927;28;20032;-70
2022/04/07 10:18:49;;;;;;;11.73;2.33;;;9.40;99.90;;;;;;5075685;28;20058;-70
2022/04/07 10:21:46;;;;;;;13.93;2.15;;;9.50;99.90;;;;;;5075529;28;20087;-70
2022/04/07 10:24:37;;;;;;;14.77;2.20;;;9.60;99.90;;;;;;5075743;28;20040;-70
2022/04/07 10:27:09;;;;;;;11.52;2.05;;;9.50;99.90;;;;;;5075471;28;20036;-70
2022/04/07 10:29:38;;;;;;;15.43;2.15;;;9.30;99.90;;;;;;5075242;28;20040;-70
2022/04/07 10:32:12;;;;;;;13.90;2.30;;;9.40;99.90;;;;;;5075389;28;20040;-70
2022/04/07 10:34:42;;;;;;;12.18;2.55;;;9.50;99.90;;;;;;5075563;28;20091;-70
2022/04/07 10:37:09;;;;;;;14.75;2.45;;;9.70;99.90;;;;;;5058824;28;20491;-70
2022/04/07 10:39:39;;;;;;;16.33;2.92;;;9.90;99.90;;;;;;5075155;28;20407;-70
2022/04/07 10:42:05;;;;;;;14.98;3.00;;;10.10;99.90;;;;;;5075342;28;20507;-70
2022/04/07 10:44:33;;;;;;;11.95;2.40;;;10.30;99.90;;;;;;5075257;28;20036;-70
2022/04/07 10:47:07;;;;;;;16.55;2.72;;;10.30;99.90;;;;;;5074896;28;20050;-70
2022/04/07 10:49:33;;;;;;;15.68;2.85;;;10.40;99.90;;;;;;5075043;28;20036;-70
2022/04/07 10:52:02;;;;;;;13.82;2.53;;;10.50;99.90;;;;;;5058435;28;20068;-70
2022/04/07 10:54:28;;;;;;;16.35;2.70;;;10.50;99.90;;;;;;5075146;28;20633;-70
2022/04/07 10:56:56;;;;;;;13.85;2.95;;;10.50;99.90;;;;;;5075109;28;20443;-70
2022/04/07 10:59:29;;;;;;;18.73;2.53;;;10.20;99.90;;;;;;5074975;28;20496;-70
2022/04/07 11:01:58;;;;;;;13.80;2.45;;;10.00;99.90;;;;;;5075108;28;20055;-70
2022/04/07 11:04:24;;;;;;;12.60;2.28;;;9.80;99.90;;;;;;5074994;28;20081;-70
2022/04/07 11:07:07;;;;;;;12.90;2.95;;;9.80;99.90;;;;;;5075013;28;20036;-70
2022/04/07 11:10:00;;;;;;;9.80;1.83;;;9.70;99.90;;;;;;5074812;28;20044;-70
2022/04/07 11:12:31;;;;;;;12.05;2.55;;;9.50;99.90;;;;;;5050006;28;20507;-70
2022/04/07 11:15:03;;;;;;;12.90;2.25;;;9.40;99.90;;;;;;5074913;28;20032;-70
2022/04/07 11:17:33;;;;;;;14.10;2.33;;;9.40;99.90;;;;;;5074853;28;20103;-70
2022/04/07 11:20:17;;;;;;;11.95;2.47;;;9.40;99.90;;;;;;5074823;28;20044;-70
2022/04/07 11:22:57;;;;;;;13.73;2.00;;;9.30;99.90;;;;;;5058232;28;20040;-70
2022/04/07 11:25:29;;;;;;;12.77;3.05;;;9.50;99.90;;;;;;5058134;28;20043;-71
2022/04/07 11:28:15;;;;;;;11.70;2.67;;;9.80;99.90;;;;;;5074823;28;20051;-70
2022/04/07 11:31:04;;;;;;;17.55;3.78;;;10.40;99.90;;;;;;5074827;28;20036;-72
2022/04/07 11:33:38;;;;;;;15.93;3.08;;;10.80;99.90;;;;;;5074798;28;20479;-71
2022/04/07 11:36:04;;;;;;;12.98;2.92;;;11.10;99.90;;;;;;5074764;28;20032;-71
2022/04/07 11:38:45;;;;;;;16.13;3.53;;;11.20;99.90;;;;;;5057857;28;20115;-71
2022/04/07 11:41:16;;;;;;;16.85;3.78;;;11.20;99.90;;;;;;5074688;28;20469;-71
2022/04/07 11:43:43;;;;;;;20.35;4.13;;;11.10;99.90;;;;;;5057995;28;20048;-71
2022/04/07 11:46:09;;;;;;;18.48;3.15;;;11.00;99.90;;;;;;5074999;28;20083;-71
2022/04/07 11:48:36;;;;;;;15.60;3.00;;;11.10;99.90;;;;;;5074518;28;20055;-71
2022/04/07 11:51:17;;;;;;;17.05;3.10;;;11.00;99.90;;;;;;5074480;28;20470;-71
2022/04/07 11:53:52;;;;;;;12.70;3.00;;;10.90;99.90;;;;;;5057833;28;20416;-71
2022/04/07 11:56:25;;;;;;;17.50;2.83;;;10.60;99.90;;;;;;5057842;28;20048;-71
2022/04/07 11:58:58;;;;;;;13.07;3.13;;;10.50;99.90;;;;;;5075397;28;20036;-71
2022/04/07 12:01:24;;;;;;;12.65;2.53;;;10.30;99.90;;;;;;5078143;28;20032;-71
2022/04/07 12:03:54;;;;;;;12.52;2.45;;;10.30;99.90;;;;;;5061432;28;20101;-71
2022/04/07 12:06:24;;;;;;;12.50;2.42;;;10.30;99.90;;;;;;5078618;28;20079;-71
2022/04/07 12:08:51;;;;;;;15.68;3.10;;;10.40;99.90;;;;;;5077939;28;20074;-71
2022/04/07 12:11:21;;;;;;;14.50;2.70;;;10.50;99.90;;;;;;5061164;28;20495;-71
2022/04/07 12:13:50;;;;;;;14.52;3.40;;;10.90;99.90;;;;;;5077962;28;20039;-71
2022/04/07 12:16:15;;;;;;;14.43;2.55;;;11.20;99.90;;;;;;5077868;28;20032;-71
2022/04/07 12:18:41;;;;;;;10.23;2.63;;;11.20;99.90;;;;;;5077998;28;20040;-71
2022/04/07 12:21:09;;;;;;;15.57;3.13;;;11.10;99.90;;;;;;5077762;28;20511;-71
2022/04/07 12:23:37;;;;;;;11.32;2.28;;;11.10;99.90;;;;;;5077755;28;20048;-71
2022/04/07 12:26:03;;;;;;;16.23;2.92;;;11.10;99.90;;;;;;5060916;28;20044;-71
2022/04/07 12:28:39;;;;;;;15.38;2.92;;;10.90;99.90;;;;;;5077593;28;20051;-71
2022/04/07 12:31:10;;;;;;;13.63;2.42;;;10.80;99.90;;;;;;5077648;28;20100;-71
2022/04/07 12:33:44;;;;;;;14.05;2.80;;;10.70;99.90;;;;;;5060869;28;20565;-71
2022/04/07 12:36:36;;;;;;;15.05;3.20;;;10.90;99.90;;;;;;5077471;28;20461;-71
2022/04/07 12:39:13;;;;;;;11.30;2.50;;;11.10;99.90;;;;;;5060606;28;20036;-71
2022/04/07 12:41:49;;;;;;;12.52;2.20;;;11.10;99.90;;;;;;5077752;28;20024;-70
2022/04/07 12:44:35;;;;;;;10.35;2.42;;;11.00;99.90;;;;;;5077403;28;20039;-70
2022/04/07 12:47:15;;;;;;;11.90;2.30;;;11.20;99.90;;;;;;5077301;28;20039;-71
2022/04/07 12:49:53;;;;;;;14.00;2.65;;;11.20;99.90;;;;;;5077207;28;20036;-71
2022/04/07 12:52:21;;;;;;;13.02;2.72;;;11.00;99.90;;;;;;5060525;28;20090;-71
2022/04/07 12:54:56;;;;;;;19.23;2.70;;;10.50;99.90;;;;;;5077138;28;20167;-71